Florida AWOS List, Phone Numbers

USA |  
| Search AWOS

Rocky Mountain States: Montana | Wyoming | Colorado | New Mexico

Complete weather reports: Florida

Legend: KFNL = METAR available Follow your local AWOS on AV Mobile = METAR available on AV Mobile
Station Florida Location Frequency Phone
KAQQICAO ID KAQQ Apalachicola, Apalachicola
KAAFFAA ID AAF, ASOS, KAAF 272309Z AUTO 16007KT 10SM SCT019 29/22 A3011 Follow KAAF on AV Mobile APALACHICOLA MUNICIPAL AIRPORT 119.925 850-653-8271
KNAEICAO ID KNAE Astor, Bombing Range Detachment Astor
KAVOFAA ID AVO, AWOS-3 AVON PARK 118.725 863-453-4223
KAGRFAA ID AGR Avon Park Gunnery Range
KBOWFAA ID BOW, AWOS-3, KBOW 272335Z AUTO 08009KT 10SM CLR 28/17 A3012 RMK AO2 Follow KBOW on AV Mobile Bartow Municipal 123.775 863-533-9004
F95FAA ID F95, AWOS-AV, KTEX 070640Z AUTO 15005KT 10SM CLR 02/M16 A3038 RMK AO2 T00201164 Follow  on AV Mobile BLOUNTSTOWN 119.350 850-674-1347
KBCTFAA ID BCT, AWOS-3, KBCT 272255Z 07012KT 10SM BKN040 27/20 A3010 Follow KBCT on AV Mobile Boca Raton, Boca Raton Airport 121.125 561-391-2696
K1J0FAA ID 1J0, K1J0 272258Z AUTO 00000KT 10SM CLR 24/22 A3013 RMK AO2 SLP161 T02440217 Follow K1J0 on AV Mobile TRI COUNTY AIRPORT
KBKVFAA ID BKV, ASOS, KBKV 272253Z AUTO 12013G16KT 10SM FEW065 31/17 A3010 RMK AO2 SLP192 T03060172 Follow KBKV on AV Mobile BROOKSVILLE HERNANDO CO AIRPORT 134.725 352-799-5881
K1J4ICAO ID K1J4 Cape San Blas Coast Guard Station
KNZCICAO ID KNZC Cecil, Naval Air Station
2ISFAA ID 2IS, AWOS-3, KTEX 070640Z AUTO 15005KT 10SM CLR 02/M16 A3038 RMK AO2 T00201164 Follow  on AV Mobile CLEWISTON 124.175 863-983-7020
KX53ICAO ID KX53 Clewiston
KCOFFAA ID COF, KCOF 272258Z AUTO 10016KT 10SM CLR 27/21 A3012 RMK AO2 SLP204 T02700211 Follow KCOF on AV Mobile Cocoa / Patrick Air Force Base
KXMRFAA ID XMR, KXMR 272258Z AUTO 11010KT 10SM CLR 27/20 A3012 RMK AO2 SLP203 T02680204 Follow KXMR on AV Mobile Cocoa Beach, Cape Canaveral Air Force Station Skid Strip
KCEWFAA ID CEW, ASOS, KCEW 272253Z AUTO 12004KT 10SM CLR 25/21 A3012 Follow KCEW on AV Mobile CRESTVIEW SIKES AIRPORT 119.275 850-682-1237
KEGIFAA ID EGI, KEGI 272255Z 15001KT 10SM FEW025 SCT120 BKN280 26/21 A3010 RMK AO2A SLP194 T02610211 $ Follow KEGI on AV Mobile Duke Field / Eglin Auxiliary
KCTYFAA ID CTY, KCTY 272253Z AUTO 10003KT 32/17 A3010 Follow KCTY on AV Mobile CROSS CITY AIRPORT
KCGCFAA ID CGC, AWOS-3, KCGC 272335Z AUTO 10005KT 10SM SCT070 29/17 A3011 RMK AO2 Follow KCGC on AV Mobile CRYSTAL RIVER 118.325 352-563-6600
KDABFAA ID DAB, ASOS, KDAB 272253Z 08012KT 10SM FEW033 BKN250 27/19 A3015 Follow KDAB on AV Mobile DAYTONA BEACH INTERNATIONAL 386-253-7469
54JFAA ID 54J, AWOS-3P, KTEX 070640Z AUTO 15005KT 10SM CLR 02/M16 A3038 RMK AO2 T00201164 Follow  on AV Mobile DEFUNIAK SPRINGS 118.725 850-892-0147
KDEDFAA ID DED, AWOS-3, KDED 272335Z AUTO 08007KT 10SM 27/18 A3016 RMK AO1 Follow KDED on AV Mobile DELAND 119.575 386-740-5811
KDTSFAA ID DTS, ASOS, KDTS 272253Z AUTO 18007KT 10SM FEW015 FEW023 28/24 A3010 RMK AO2 SLP192 T02830239 TSNO Follow KDTS on AV Mobile DESTIN-FT WALTON BEACH AIRPORT 133.925 850-654-7128
KX91ICAO ID KX91 Egmont Key Coast Guard Station
KFHBFAA ID FHB, AWOS-3, KFHB 272335Z AUTO 11006KT 10SM CLR 28/19 A3017 RMK AO1 Follow KFHB on AV Mobile FERNANDINA BEACH 118.075 904-277-7323
KFXEFAA ID FXE, ASOS, KFXE 272253Z 08010KT 10SM FEW035 SCT055 28/20 A3008 Follow KFXE on AV Mobile FORT LAUDERDALE EXECUTIVE 954-772-2537
KFLLFAA ID FLL, ASOS, KFLL 272253Z 06011KT 10SM FEW036 FEW070 SCT250 28/19 A3008 Follow KFLL on AV Mobile FORT LAUDERDALE/HOLLYWOOD 954-359-7857
KFMYFAA ID FMY, ASOS, KFMY 272253Z 08011KT 10SM CLR 31/14 A3005 RMK AO2 SLP178 T03110139 Follow KFMY on AV Mobile FORT MYERS PAGE FIELD 239-936-2318
KRSWFAA ID RSW, ASOS, KRSW 272253Z AUTO 07014KT 10SM FEW070 31/16 A3006 Follow KRSW on AV Mobile FORT MYERS SW FL INTERNATIONAL AIRPORT 239-561-0966
KX82ICAO ID KX82 Fort Pierce Coast Guard Station
KFPRFAA ID FPR, ASOS, KFPR 272253Z 09009KT 10SM FEW046 27/19 A3011 Follow KFPR on AV Mobile FORT PIERCE ST LUCIE 772-489-4281
KX86ICAO ID KX86 Fowey Rocks Coast Guard Station
KX89ICAO ID KX89 Ft. Myers Beach Coast Guard Station
KGNVFAA ID GNV, ASOS, KGNV 272253Z 10009KT 10SM CLR 29/16 A3013 Follow KGNV on AV Mobile GAINESVILLE REGIONAL AIRPORT 352-335-8672
KHWOFAA ID HWO, ASOS, KHWO 272153Z 06015KT 10SM CLR 29/18 A3010 RMK AO2 SLP193 T02940178 Follow KHWO on AV Mobile HOLLYWOOD NORTH PERRY AIRPORT 954-983-5904
X51FAA ID X51, AWOS-3, KTEX 070640Z AUTO 15005KT 10SM CLR 02/M16 A3038 RMK AO2 T00201164 Follow  on AV Mobile HOMESTEAD 118.375 (305) 247-2791
KHSTFAA ID HST, KHST 272258Z AUTO 06009KT 10SM CLR 28/21 A3007 RMK AO2 SLP186 T02750206 Follow KHST on AV Mobile Homestead Air Force Base
KIMMFAA ID IMM, AWOS-3, KIMM 272335Z AUTO 06009G15KT CLR A3008 RMK A01 P000 Follow KIMM on AV Mobile IMMOKALEE 118.525 239-657-2038
KINFFAA ID INF, AWOS-3, KINF 272335Z AUTO 08005KT 10SM CLR 29/18 A3012 RMK AO2 Follow KINF on AV Mobile INVERNESS 119.975 352-341-0264
KX84ICAO ID KX84 Islamorada Coast Guard Station
KHEGFAA ID HEG, AWOS-3 JACKSONVILLE 119.275 904-695-0334
KCRGFAA ID CRG, ASOS, KCRG 272253Z 09006KT 10SM FEW030 FEW036 27/19 A3017 RMK AO2 SLP216 T02720189 Follow KCRG on AV Mobile JACKSONVILLE CRAIG MUN 904-646-4670
KJAXFAA ID JAX, ASOS, KJAX 272256Z 09009KT 10SM FEW035 FEW050 BKN250 26/18 A3017 Follow KJAX on AV Mobile JACKSONVILLE INTERNATIONAL 904-741-4304
KNIPFAA ID NIP, KNIP 272253Z 09011KT 10SM SCT046 BKN250 29/18 A3017 RMK AO2 SLP212 T02940183 Follow KNIP on AV Mobile JACKSONVILLE NAVAL AIR STN
KVQQFAA ID VQQ, AWOS-3, KVQQ 272250Z 09010KT 10SM SCT040 27/18 A3016 Follow KVQQ on AV Mobile Jacksonville, Cecil Field Airport 125.275 904-778-6934
KNENFAA ID NEN NOLF WHITEHOUSE FIELD, FL
KX80ICAO ID KX80 Jupiter Inlet Coast Guard Station
KEYWFAA ID EYW, ASOS, KEYW 272253Z 09013KT 10SM CLR 28/22 A3005 Follow KEYW on AV Mobile KEY WEST INTERNATIONAL AIRPORT 119.65 305-292-4046
KNQXFAA ID NQX, KNQX 272253Z 09013KT 10SM FEW025 SCT060 BKN250 28/21 A3004 RMK AO2 SLP172 T02830211 Follow KNQX on AV Mobile KEY WEST NAVAL AIR STATION
K42JFAA ID 42J, AWOS-3, K42J 272335Z AUTO 09008KT 10SM SCT030 27/16 A3016 RMK AO1 TSNO Follow K42J on AV Mobile KEYSTONE HEIGHTS 124.275 352-473-8273
KLCQFAA ID LCQ, AWOS-3, KLCQ 272335Z AUTO 11006KT 10SM CLR 27/17 A3014 RMK AO2 LTG DSNT W Follow KLCQ on AV Mobile LAKE CITY 120.675 386-754-9366
X07FAA ID X07, AWOS-3, KTEX 070640Z AUTO 15005KT 10SM CLR 02/M16 A3038 RMK AO2 T00201164 Follow  on AV Mobile LAKE WALES 124.225 863-678-1334
KX81ICAO ID KX81 Lake Worth Inlet
KLALFAA ID LAL, AWOS-3PT, KLAL 272150Z 12014G19KT 10SM SCT060 31/16 A3011 Follow KLAL on AV Mobile Lakeland Regional 118.025 863-834-2030
KLEEFAA ID LEE, ASOS, KLEE 272253Z 10011KT 10SM CLR 30/16 A3013 RMK AO2 SLP202 T03000161 Follow KLEE on AV Mobile LEESBURG REGIONAL AIRPORT 134.325 352-787-1565
24JFAA ID 24J, AWOS-3, KTEX 070640Z AUTO 15005KT 10SM CLR 02/M16 A3038 RMK AO2 T00201164 Follow  on AV Mobile LIVE OAK 118.225 386-362-1731
KX88ICAO ID KX88 Marathon Coast Guard Station
KMTHFAA ID MTH, ASOS, KMTH 272253Z AUTO 08011G20KT 10SM CLR 29/21 A3006 RMK AO2 SLP177 T02890206 Follow KMTH on AV Mobile MARATHON AIRPORT 135.525 305-743-8373
KMKYFAA ID MKY, AWOS-3, KMKY 272335Z AUTO 08010KT 29/18 A3005 RMK AO1 Follow KMKY on AV Mobile MARCO ISLAND 120.075 239-394-8187
KMAIFAA ID MAI, ASOS, KMAI 272253Z AUTO 00000KT 10SM CLR 24/22 A3011 RMK AO2 LTG DSNT NW-E SLP196 T02440222 Follow KMAI on AV Mobile MARIANNA MUNICIPAL AIRPORT 133.525 850-482-6082
KHRTFAA ID HRT, KHRT 272258Z AUTO 16008KT 10SM FEW016 28/23 A3010 RMK AO2 SLP194 T02750230 $ Follow KHRT on AV Mobile Hurlburt Field
KNRBFAA ID NRB, KNRB 272252Z 11008KT 10SM FEW030 BKN250 27/18 A3017 RMK AO2 SLP217 T02670183 $ Follow KNRB on AV Mobile MAYPORT NAVAL AIR FACILITY
KMLBFAA ID MLB, ASOS, KMLB 272253Z 09012KT 10SM SCT060 BKN070 26/20 A3012 Follow KMLB on AV Mobile MELBOURNE INTERNATIONAL 321-723-7403
KCOIFAA ID COI, AWOS-3 Merritt Island, Merritt Island Airport 119.025 321-986-8864
KTNTFAA ID TNT, AWOS-3 MIAMI 119.075 (239) 695-9198
KX87ICAO ID KX87 Miami Beach Coast Guard Station
KAMXICAO ID KAMX Miami Nexrad
KTMBFAA ID TMB, ASOS, KTMB 272253Z 10013KT 10SM CLR 28/19 A3008 Follow KTMB on AV Mobile KENDALL-TAMIAMI EXEC AIRPORT 305-235-1332
KMIAFAA ID MIA, ASOS, KMIA 272253Z 07012KT 10SM FEW041 FEW060 SCT250 28/17 A3008 Follow KMIA on AV Mobile MIAMI INTERNATIONAL AIRPORT 305-870-0235
KOPFFAA ID OPF, KOPF 272253Z 07011KT 10SM FEW030 28/17 A3008 Follow KOPF on AV Mobile MIAMI OPA LOCKA AIRPORT
KNFJFAA ID NFJ CHOCTAW, WHITING FIELD, NOLF
KNSEFAA ID NSE, KNSE 272338Z 27003KT 10SM SCT030 BKN100 BKN250 25/22 A3012 RMK AO2 TSB16E32 CB DSNT N T1 SET T02500217 $ Follow KNSE on AV Mobile MILTON WHITING FIELD (NORTH)
KNDZFAA ID NDZ, KNDZ 272319Z 00000KT 10SM VCTS SCT025CB SCT040 BKN110 BKN250 27/23 A3012 RMK AO2 ONCL LTGICCG N TS N MOV N T02720228 $ Follow KNDZ on AV Mobile MILTON WHITING FIELD (SOUTH)
KAPFFAA ID APF, ASOS, KAPF 272253Z 04010G19KT 10SM FEW060 31/18 A3004 Follow KAPF on AV Mobile NAPLES MUNICIPAL AIRPORT 239-643-9886
KRRFICAO ID KRRF New Port Richey, Tampa Bay Executive Airport
KEVBFAA ID EVB, AWOS-3, KEVB 272250Z 08010G14KT 10SM BKN045 27/20 A3016 Follow KEVB on AV Mobile New Smyrna Beach, New Smyrna Beach Municipal Airport 124.625 386-409-4705
KOCFFAA ID OCF, AWOS-3, KOCF 272250Z 07007G15KT 10SM FEW070 30/15 A3012 Follow KOCF on AV Mobile Ocala, Ocala International Airport-Jim Taylor Field 128.125 352-237-8525
KOBEFAA ID OBE, AWOS-3, KOBE 272335Z AUTO 08006KT 10SM CLR 26/19 A3012 RMK AO2 Follow KOBE on AV Mobile Okeechobee County Airport 118.675 863-467-1148
KORLFAA ID ORL, ASOS, KORL 272253Z 09014KT 10SM FEW034 28/19 A3013 RMK AO2 SLP206 T02830194 Follow KORL on AV Mobile ORLANDO EXECUTIVE AIRPORT 407-658-6753
KMCOFAA ID MCO, ASOS, KMCO 272253Z 06010KT 10SM SCT036 SCT070 BKN250 28/20 A3013 Follow KMCO on AV Mobile ORLANDO INTERNATIONAL AIRPORT 407-855-5235
KSFBFAA ID SFB, ASOS, KSFB 272253Z 09010KT 10SM CLR 28/18 A3014 Follow KSFB on AV Mobile ORLANDO SANFORD AIRPORT 407-321-9384
KISMFAA ID ISM, AWOS-3, KISM 272250Z 07010G15KT 10SM SCT046 29/19 A3013 Follow KISM on AV Mobile Orlando, Kissimmee Municipal Airport 128.775 407-847-0533
KOMNFAA ID OMN, AWOS-3, KOMN 272250Z 10007KT 10SM SCT037 27/19 A3015 RMK LAST Follow KOMN on AV Mobile Ormond Beach, Ormond Beach Municipal Airport 118.475 386-615-7084
28JFAA ID 28J, AWOS-3, KTEX 070640Z AUTO 15005KT 10SM CLR 02/M16 A3038 RMK AO2 T00201164 Follow  on AV Mobile PALATKA 119.92 386-312-2212
KXFLFAA ID XFL, AWOS-3, KXFL 132150Z VRB03KT 7SM CLR 21/18 A2999 Follow KXFL on AV Mobile PALM COAST 128.325 386-437-7334
KECPFAA ID ECP, ASOS, KECP 272253Z 06004KT 10SM CLR 26/21 A3011 Follow KECP on AV Mobile PANAMA CITY 119.975 850-235-7857
KPFNICAO ID KPFN, KPFN 030253Z VRB03KT 10SM FEW023 25/23 A2989 Follow KPFN on AV Mobile PANAMA CITY-BAY CTY INTERNATIONAL
KPAMFAA ID PAM, KPAM 272257Z 09004KT 10SM BKN055 24/20 A3011 RMK LTG DSNT NE AND S SLP199 $ Follow KPAM on AV Mobile Tyndall Air Force Base
KPNSFAA ID PNS, ASOS, KPNS 272300Z 17008KT 10SM FEW021 BKN100 26/21 A3010 Follow KPNS on AV Mobile PENSACOLA REGIONAL AIRPORT 850-436-4799
KNPAFAA ID NPA, KNPA 272256Z 17006KT 10SM SCT017 BKN060 BKN120 BKN250 27/23 A3010 RMK AO2 SLP195 TCU SW-W T2 SET T02720228 $ Follow KNPA on AV Mobile Pensacola, Naval Air Station
K40JFAA ID 40J, AWOS-3PT, K40J 272335Z AUTO 00000KT 10SM -TSRA SCT019 SCT025 BKN034 22/20 A3013 RMK AO2 P0021 T02170202 Follow K40J on AV Mobile PERRY-FOLEY AIRPORT 118.375 850-838-3526
FA54FAA ID FA54, Belfort CORAL CREEK
KPCMFAA ID PCM, AWOS-3, KPCM 272335Z AUTO 09005KT 10SM CLR 30/18 A3013 RMK AO2 Follow KPCM on AV Mobile Plant City, Plant City Municipal Airport 120.025 813-764-8259
KPMPFAA ID PMP, ASOS, KPMP 272253Z 07007KT 10SM FEW035 SCT065 27/19 A3009 RMK AO2 SLP189 T02720194 Follow KPMP on AV Mobile POMPANO BEACH AIRPARK 954-783-3720
K1J3ICAO ID K1J3 Ponce De Leon Inlet
KPGDFAA ID PGD, ASOS, KPGD 272253Z AUTO 07010G19KT 10SM FEW065 31/16 A3008 RMK AO2 SLP188 T03060161 Follow KPGD on AV Mobile PUNTA GORDA CHARLOTTE COUNTY 135.675 941-639-0076
K1J5ICAO ID K1J5 Santa Rosa Coast Guard Station
KSRQFAA ID SRQ, ASOS, KSRQ 272253Z AUTO 08011KT 10SM CLR 31/16 A3006 Follow KSRQ on AV Mobile SARASOTA/BRADENTON INTERNATIONAL . 124.375 941-359-0117
KSEFFAA ID SEF, AWOS-3 SEBRING 119.475 863-655-6424
KSGJFAA ID SGJ, AWOS-3, KSGJ 272258Z 10011KT 10SM SCT029 27/20 A3017 RMK AO2 SLP217 T02670200 Follow KSGJ on AV Mobile St. Augustine, St. Augustine Airport 904-824-7084
KPIEFAA ID PIE, ASOS, KPIE 272253Z 10009KT 10SM BKN060 30/18 A3008 Follow KPIE on AV Mobile ST PETERSBURG/CLEARWATER 727-531-3456
KSPGFAA ID SPG, ASOS, KSPG 272253Z 11015KT 10SM CLR 31/18 A3008 RMK AO2 SLP184 T03110178 Follow KSPG on AV Mobile ST PETERSBURG WHITTED AIRPORT 118.875 727-821-4334
KSUAFAA ID SUA, AWOS-3, KSUA 272335Z AUTO 09014G18KT 10SM SCT048 BKN050 OVC070 26/19 A3012 RMK AO2 Follow KSUA on AV Mobile Stuart, Witham Field Airport 772-692-7399
KTLHFAA ID TLH, ASOS, KTLH 272253Z 36003KT 10SM TS FEW050CB SCT120 OVC250 26/23 A3012 Follow KTLH on AV Mobile TALLAHASSEE REGIONAL AIRPORT 850-576-3665
KTBWICAO ID KTBW Tampa Bay Area
KMCFFAA ID MCF, KMCF 272258Z AUTO 10013KT 10SM CLR 31/16 A3008 RMK AO2 SLP189 T03060163 Follow KMCF on AV Mobile Macdill Air Force Base, Fl.
KTPAFAA ID TPA, ASOS, KTPA 272253Z 06008G15KT 10SM FEW065 FEW300 32/15 A3010 Follow KTPA on AV Mobile TAMPA INTERNATIONAL AIRPORT 813-873-7228
KTPFFAA ID TPF, AWOS-3, KTPF 272335Z AUTO 10008KT 10SM CLR 31/16 A3009 RMK AO2 Follow KTPF on AV Mobile Tampa, Peter O Knight Airport 118.925 813-251-6824
KVDFFAA ID VDF, AWOS-3, KVDF 272335Z AUTO 08006KT 10SM CLR 30/16 A3010 RMK AO2 Follow KVDF on AV Mobile Tampa, Vandenberg Airport 121.125 813-630-0924
KVLGICAO ID KVLG The Villages
KVVGICAO ID KVVG, KVVG 272315Z AUTO 07009KT 10SM 29/17 A3003 RMK A01 Follow KVVG on AV Mobile The Villages
KX68ICAO ID KX68 Titusville, NASA Shuttle Landing Facility
KTIXFAA ID TIX, KTIX 272250Z 07012KT 7SM SCT025 BKN050 27/22 A3014 Follow KTIX on AV Mobile Titusville
KX21FAA ID X21, AWOS-3 Titusville, Arthur Dunn Air Park 119.725 321-385-0383
KTTSFAA ID TTS, KTTS 272303Z AUTO VRB02KT 10SM FEW023 BKN029 OVC039 24/21 A3013 RMK AO2 Follow KTTS on AV Mobile Titusville, NASA Shuttle Landing Facility
KVPSFAA ID VPS, KVPS 272255Z 20007KT 10SM SCT018 SCT170 BKN250 28/23 A3011 RMK AO2A SLP202 MDT CU SE T02810233 $ Follow KVPS on AV Mobile Valparaiso / Eglin Air Force Base
KVNCFAA ID VNC, AWOS-3, KVNC 272315Z AUTO 08011KT 10SM SCT070 30/16 A3008 RMK AO2 Follow KVNC on AV Mobile VENICE 119.275
KX90ICAO ID KX90 Venice Long Range Navigation
KVRBFAA ID VRB, ASOS, KVRB 272253Z 09012KT 10SM FEW028 BKN038 BKN045 27/19 A3012 Follow KVRB on AV Mobile VERO BEACH MUNICIPAL AIRPORT 772-978-9535
F45FAA ID F45, AWOS-3, KTEX 070640Z AUTO 15005KT 10SM CLR 02/M16 A3038 RMK AO2 T00201164 Follow  on AV Mobile WEST PALM BEACH 119.975 561-630-6932
KLNAFAA ID LNA, AWOS-3 WEST PALM BEACH 119.925 561-964-0308
KPBIFAA ID PBI, ASOS, KPBI 272253Z 08017G21KT 10SM -RA BKN032CB BKN042 BKN060 28/21 A3010 Follow KPBI on AV Mobile PALM BEACH INTERNATIONAL 123.75 561-683-2548
FD38FAA ID FD38, Belfort WELLINGTON AERO CLUB
X60FAA ID X60, AWOS-3, KTEX 070640Z AUTO 15005KT 10SM CLR 02/M16 A3038 RMK AO2 T00201164 Follow  on AV Mobile WILLISTON 118.425 352-528-9949
KGIFFAA ID GIF, ASOS, KGIF 272253Z AUTO 08012KT 10SM FEW050 29/17 A3013 RMK AO2 SLP199 T02890172 Follow KGIF on AV Mobile WINTER HAVENS GILBERT AIRPORT 133.675 863-956-2097
KZPHFAA ID ZPH, ASOS, KZPH 021315Z AUTO 00000KT 10SM CLR 18/18 A3022 RMK AO2 Follow KZPH on AV Mobile ZEPHYRHILLS 118.975 813-780-0031

Click on the AV Mobile icon AV Mobile icon by any station to follow that AWOS feed on AirportView.net Mobile.

Garmin aera 796 $1999 at Avionics Specialists LLC
Bose A20 Aviation Headsets $995 at Avionics Specialists LLC